sensor_id;sensor_type;location;lat;lon;timestamp;P1;durP1;ratioP1;P2;durP2;ratioP2
65459;SDS011;52058;49.822;6.754;2023-07-31T00:01:38;3.70;;;1.90;;
65459;SDS011;52058;49.822;6.754;2023-07-31T00:04:04;4.82;;;1.58;;
65459;SDS011;52058;49.822;6.754;2023-07-31T00:06:31;5.22;;;1.88;;
65459;SDS011;52058;49.822;6.754;2023-07-31T00:08:57;3.95;;;1.63;;
65459;SDS011;52058;49.822;6.754;2023-07-31T00:11:25;4.38;;;1.90;;
65459;SDS011;52058;49.822;6.754;2023-07-31T00:13:52;5.28;;;1.60;;
65459;SDS011;52058;49.822;6.754;2023-07-31T00:16:19;3.97;;;1.60;;
65459;SDS011;52058;49.822;6.754;2023-07-31T00:18:46;4.68;;;1.90;;
65459;SDS011;52058;49.822;6.754;2023-07-31T00:21:12;2.45;;;1.42;;
65459;SDS011;52058;49.822;6.754;2023-07-31T00:23:39;5.53;;;1.80;;
65459;SDS011;52058;49.822;6.754;2023-07-31T00:26:06;3.15;;;1.65;;
65459;SDS011;52058;49.822;6.754;2023-07-31T00:28:34;3.92;;;1.77;;
65459;SDS011;52058;49.822;6.754;2023-07-31T00:31:00;4.00;;;2.00;;
65459;SDS011;52058;49.822;6.754;2023-07-31T00:33:28;2.80;;;1.70;;
65459;SDS011;52058;49.822;6.754;2023-07-31T00:35:56;6.55;;;1.88;;
65459;SDS011;52058;49.822;6.754;2023-07-31T00:38:22;3.67;;;1.60;;
65459;SDS011;52058;49.822;6.754;2023-07-31T00:40:49;3.92;;;1.73;;
65459;SDS011;52058;49.822;6.754;2023-07-31T00:43:15;3.35;;;1.60;;
65459;SDS011;52058;49.822;6.754;2023-07-31T00:45:43;4.15;;;1.80;;
65459;SDS011;52058;49.822;6.754;2023-07-31T00:48:10;3.25;;;1.70;;
65459;SDS011;52058;49.822;6.754;2023-07-31T00:50:36;5.50;;;1.88;;
65459;SDS011;52058;49.822;6.754;2023-07-31T00:53:05;4.20;;;1.63;;
65459;SDS011;52058;49.822;6.754;2023-07-31T00:55:31;4.45;;;1.80;;
65459;SDS011;52058;49.822;6.754;2023-07-31T00:57:58;6.72;;;1.63;;
65459;SDS011;52058;49.822;6.754;2023-07-31T01:00:25;6.28;;;1.52;;
65459;SDS011;52058;49.822;6.754;2023-07-31T01:02:53;2.65;;;1.30;;
65459;SDS011;52058;49.822;6.754;2023-07-31T01:05:20;2.40;;;1.50;;
65459;SDS011;52058;49.822;6.754;2023-07-31T01:07:56;4.10;;;1.85;;
65459;SDS011;52058;49.822;6.754;2023-07-31T01:10:29;4.28;;;1.80;;
65459;SDS011;52058;49.822;6.754;2023-07-31T01:13:01;6.15;;;2.05;;
65459;SDS011;52058;49.822;6.754;2023-07-31T01:15:29;3.53;;;2.03;;
65459;SDS011;52058;49.822;6.754;2023-07-31T01:17:57;4.45;;;1.90;;
65459;SDS011;52058;49.822;6.754;2023-07-31T01:20:24;2.58;;;1.60;;
65459;SDS011;52058;49.822;6.754;2023-07-31T01:23:08;3.20;;;1.70;;
65459;SDS011;52058;49.822;6.754;2023-07-31T01:25:56;2.80;;;1.65;;
65459;SDS011;52058;49.822;6.754;2023-07-31T01:28:29;3.83;;;2.08;;
65459;SDS011;52058;49.822;6.754;2023-07-31T01:31:04;5.30;;;1.75;;
65459;SDS011;52058;49.822;6.754;2023-07-31T01:33:33;4.15;;;1.80;;
65459;SDS011;52058;49.822;6.754;2023-07-31T01:36:01;4.00;;;1.40;;
65459;SDS011;52058;49.822;6.754;2023-07-31T01:38:27;2.88;;;1.75;;
65459;SDS011;52058;49.822;6.754;2023-07-31T01:40:55;5.82;;;1.70;;
65459;SDS011;52058;49.822;6.754;2023-07-31T01:43:22;3.67;;;1.60;;
65459;SDS011;52058;49.822;6.754;2023-07-31T01:45:49;6.25;;;1.73;;
65459;SDS011;52058;49.822;6.754;2023-07-31T01:48:16;6.30;;;1.55;;
65459;SDS011;52058;49.822;6.754;2023-07-31T01:50:42;2.97;;;1.63;;
65459;SDS011;52058;49.822;6.754;2023-07-31T01:53:09;2.83;;;1.60;;
65459;SDS011;52058;49.822;6.754;2023-07-31T01:55:37;2.75;;;1.80;;
65459;SDS011;52058;49.822;6.754;2023-07-31T01:58:05;3.15;;;1.63;;
65459;SDS011;52058;49.822;6.754;2023-07-31T02:00:31;5.63;;;1.92;;
65459;SDS011;52058;49.822;6.754;2023-07-31T02:02:59;2.05;;;1.52;;
65459;SDS011;52058;49.822;6.754;2023-07-31T02:05:25;4.25;;;2.13;;
65459;SDS011;52058;49.822;6.754;2023-07-31T02:07:52;3.83;;;1.90;;
65459;SDS011;52058;49.822;6.754;2023-07-31T02:10:18;3.70;;;1.60;;
65459;SDS011;52058;49.822;6.754;2023-07-31T02:12:45;5.97;;;1.63;;
65459;SDS011;52058;49.822;6.754;2023-07-31T02:15:13;4.82;;;1.67;;
65459;SDS011;52058;49.822;6.754;2023-07-31T02:17:40;3.78;;;1.95;;
65459;SDS011;52058;49.822;6.754;2023-07-31T02:20:07;3.75;;;1.90;;
65459;SDS011;52058;49.822;6.754;2023-07-31T02:22:34;3.25;;;1.88;;
65459;SDS011;52058;49.822;6.754;2023-07-31T02:25:01;5.50;;;1.80;;
65459;SDS011;52058;49.822;6.754;2023-07-31T02:27:27;3.60;;;2.08;;
65459;SDS011;52058;49.822;6.754;2023-07-31T02:29:54;6.78;;;1.98;;
65459;SDS011;52058;49.822;6.754;2023-07-31T02:32:22;4.70;;;1.88;;
65459;SDS011;52058;49.822;6.754;2023-07-31T02:34:49;4.35;;;1.90;;
65459;SDS011;52058;49.822;6.754;2023-07-31T02:37:15;3.33;;;1.75;;
65459;SDS011;52058;49.822;6.754;2023-07-31T02:39:42;4.65;;;2.50;;
65459;SDS011;52058;49.822;6.754;2023-07-31T02:42:09;5.90;;;2.00;;
65459;SDS011;52058;49.822;6.754;2023-07-31T02:44:35;9.40;;;1.98;;
65459;SDS011;52058;49.822;6.754;2023-07-31T02:47:02;4.25;;;1.90;;
65459;SDS011;52058;49.822;6.754;2023-07-31T02:49:30;4.85;;;2.10;;
65459;SDS011;52058;49.822;6.754;2023-07-31T02:51:57;4.68;;;1.70;;
65459;SDS011;52058;49.822;6.754;2023-07-31T02:54:24;5.32;;;1.98;;
65459;SDS011;52058;49.822;6.754;2023-07-31T02:56:50;5.78;;;2.10;;
65459;SDS011;52058;49.822;6.754;2023-07-31T02:59:17;5.18;;;2.00;;
65459;SDS011;52058;49.822;6.754;2023-07-31T03:01:44;5.97;;;2.00;;
65459;SDS011;52058;49.822;6.754;2023-07-31T03:04:10;5.57;;;2.10;;
65459;SDS011;52058;49.822;6.754;2023-07-31T03:06:38;3.53;;;2.20;;
65459;SDS011;52058;49.822;6.754;2023-07-31T03:09:05;7.15;;;2.22;;
65459;SDS011;52058;49.822;6.754;2023-07-31T03:11:31;6.40;;;2.35;;
65459;SDS011;52058;49.822;6.754;2023-07-31T03:13:58;3.72;;;2.03;;
65459;SDS011;52058;49.822;6.754;2023-07-31T03:16:24;5.40;;;1.50;;
65459;SDS011;52058;49.822;6.754;2023-07-31T03:18:51;4.85;;;2.10;;
65459;SDS011;52058;49.822;6.754;2023-07-31T03:21:18;7.43;;;2.40;;
65459;SDS011;52058;49.822;6.754;2023-07-31T03:23:46;7.25;;;2.60;;
65459;SDS011;52058;49.822;6.754;2023-07-31T03:26:12;5.13;;;2.08;;
65459;SDS011;52058;49.822;6.754;2023-07-31T03:28:39;9.55;;;2.22;;
65459;SDS011;52058;49.822;6.754;2023-07-31T03:31:05;8.00;;;2.53;;
65459;SDS011;52058;49.822;6.754;2023-07-31T03:33:33;5.55;;;2.08;;
65459;SDS011;52058;49.822;6.754;2023-07-31T03:36:00;3.25;;;2.05;;
65459;SDS011;52058;49.822;6.754;2023-07-31T03:38:27;4.50;;;2.13;;
65459;SDS011;52058;49.822;6.754;2023-07-31T03:40:55;3.80;;;2.00;;
65459;SDS011;52058;49.822;6.754;2023-07-31T03:43:21;6.38;;;2.38;;
65459;SDS011;52058;49.822;6.754;2023-07-31T03:45:48;5.32;;;2.38;;
65459;SDS011;52058;49.822;6.754;2023-07-31T03:48:15;9.50;;;2.22;;
65459;SDS011;52058;49.822;6.754;2023-07-31T03:50:42;5.03;;;1.92;;
65459;SDS011;52058;49.822;6.754;2023-07-31T03:53:08;6.88;;;2.33;;
65459;SDS011;52058;49.822;6.754;2023-07-31T03:55:35;5.63;;;2.20;;
65459;SDS011;52058;49.822;6.754;2023-07-31T03:58:03;5.50;;;2.20;;
65459;SDS011;52058;49.822;6.754;2023-07-31T04:00:30;5.65;;;2.35;;
65459;SDS011;52058;49.822;6.754;2023-07-31T04:02:56;7.00;;;2.17;;
65459;SDS011;52058;49.822;6.754;2023-07-31T04:05:23;5.95;;;2.28;;
65459;SDS011;52058;49.822;6.754;2023-07-31T04:07:50;6.45;;;2.25;;
65459;SDS011;52058;49.822;6.754;2023-07-31T04:10:16;6.95;;;2.25;;
65459;SDS011;52058;49.822;6.754;2023-07-31T04:12:43;4.57;;;2.05;;
65459;SDS011;52058;49.822;6.754;2023-07-31T04:15:11;6.55;;;2.10;;
65459;SDS011;52058;49.822;6.754;2023-07-31T04:17:37;6.03;;;2.35;;
65459;SDS011;52058;49.822;6.754;2023-07-31T04:20:04;4.97;;;2.20;;
65459;SDS011;52058;49.822;6.754;2023-07-31T04:22:32;5.75;;;2.20;;
65459;SDS011;52058;49.822;6.754;2023-07-31T04:24:58;5.40;;;2.40;;
65459;SDS011;52058;49.822;6.754;2023-07-31T04:27:25;4.00;;;2.20;;
65459;SDS011;52058;49.822;6.754;2023-07-31T04:29:51;4.25;;;2.05;;
65459;SDS011;52058;49.822;6.754;2023-07-31T04:32:19;5.57;;;2.20;;
65459;SDS011;52058;49.822;6.754;2023-07-31T04:34:46;6.63;;;2.22;;
65459;SDS011;52058;49.822;6.754;2023-07-31T04:37:13;5.50;;;2.17;;
65459;SDS011;52058;49.822;6.754;2023-07-31T04:39:39;6.07;;;2.25;;
65459;SDS011;52058;49.822;6.754;2023-07-31T04:42:06;5.10;;;2.10;;
65459;SDS011;52058;49.822;6.754;2023-07-31T04:44:32;4.63;;;2.38;;
65459;SDS011;52058;49.822;6.754;2023-07-31T04:46:59;4.68;;;2.40;;
65459;SDS011;52058;49.822;6.754;2023-07-31T04:49:28;5.28;;;2.25;;
65459;SDS011;52058;49.822;6.754;2023-07-31T04:51:55;7.55;;;2.53;;
65459;SDS011;52058;49.822;6.754;2023-07-31T04:54:21;8.93;;;2.20;;
65459;SDS011;52058;49.822;6.754;2023-07-31T04:56:48;7.45;;;2.17;;
65459;SDS011;52058;49.822;6.754;2023-07-31T04:59:14;4.25;;;2.08;;
65459;SDS011;52058;49.822;6.754;2023-07-31T05:01:41;6.50;;;2.00;;
65459;SDS011;52058;49.822;6.754;2023-07-31T05:04:08;3.75;;;1.73;;
65459;SDS011;52058;49.822;6.754;2023-07-31T05:06:36;3.47;;;1.83;;
65459;SDS011;52058;49.822;6.754;2023-07-31T05:09:02;4.75;;;2.05;;
65459;SDS011;52058;49.822;6.754;2023-07-31T05:11:29;7.53;;;2.10;;
65459;SDS011;52058;49.822;6.754;2023-07-31T05:13:55;3.65;;;2.20;;
65459;SDS011;52058;49.822;6.754;2023-07-31T05:16:22;5.05;;;1.92;;
65459;SDS011;52058;49.822;6.754;2023-07-31T05:18:49;4.00;;;2.00;;
65459;SDS011;52058;49.822;6.754;2023-07-31T05:21:15;5.70;;;2.30;;
65459;SDS011;52058;49.822;6.754;2023-07-31T05:23:43;6.65;;;2.25;;
65459;SDS011;52058;49.822;6.754;2023-07-31T05:26:10;5.47;;;2.22;;
65459;SDS011;52058;49.822;6.754;2023-07-31T05:28:36;4.40;;;2.17;;
65459;SDS011;52058;49.822;6.754;2023-07-31T05:31:04;5.13;;;2.40;;
65459;SDS011;52058;49.822;6.754;2023-07-31T05:33:31;4.25;;;1.85;;
65459;SDS011;52058;49.822;6.754;2023-07-31T05:35:58;4.78;;;1.90;;
65459;SDS011;52058;49.822;6.754;2023-07-31T05:38:25;4.82;;;2.22;;
65459;SDS011;52058;49.822;6.754;2023-07-31T05:40:53;5.00;;;2.20;;
65459;SDS011;52058;49.822;6.754;2023-07-31T05:43:20;5.88;;;2.10;;
65459;SDS011;52058;49.822;6.754;2023-07-31T05:45:46;7.88;;;2.30;;
65459;SDS011;52058;49.822;6.754;2023-07-31T05:48:13;6.22;;;2.35;;
65459;SDS011;52058;49.822;6.754;2023-07-31T05:50:40;3.58;;;2.03;;
65459;SDS011;52058;49.822;6.754;2023-07-31T05:53:07;6.97;;;2.15;;
65459;SDS011;52058;49.822;6.754;2023-07-31T05:55:33;5.75;;;2.45;;
65459;SDS011;52058;49.822;6.754;2023-07-31T05:58:01;5.25;;;2.25;;
65459;SDS011;52058;49.822;6.754;2023-07-31T06:00:28;7.90;;;2.20;;
65459;SDS011;52058;49.822;6.754;2023-07-31T06:02:54;8.85;;;2.33;;
65459;SDS011;52058;49.822;6.754;2023-07-31T06:05:21;8.73;;;2.42;;
65459;SDS011;52058;49.822;6.754;2023-07-31T06:07:48;6.50;;;2.22;;
65459;SDS011;52058;49.822;6.754;2023-07-31T06:10:14;5.78;;;2.53;;
65459;SDS011;52058;49.822;6.754;2023-07-31T06:12:41;6.05;;;2.30;;
65459;SDS011;52058;49.822;6.754;2023-07-31T06:15:09;4.45;;;2.00;;
65459;SDS011;52058;49.822;6.754;2023-07-31T06:17:36;6.63;;;2.47;;
65459;SDS011;52058;49.822;6.754;2023-07-31T06:20:03;3.47;;;1.75;;
65459;SDS011;52058;49.822;6.754;2023-07-31T06:22:30;3.47;;;1.88;;
65459;SDS011;52058;49.822;6.754;2023-07-31T06:24:57;6.45;;;2.05;;
65459;SDS011;52058;49.822;6.754;2023-07-31T06:27:24;3.90;;;2.22;;
65459;SDS011;52058;49.822;6.754;2023-07-31T06:29:50;7.50;;;2.13;;
65459;SDS011;52058;49.822;6.754;2023-07-31T06:32:18;3.60;;;2.05;;
65459;SDS011;52058;49.822;6.754;2023-07-31T06:34:45;4.78;;;2.13;;
65459;SDS011;52058;49.822;6.754;2023-07-31T06:37:12;4.40;;;1.83;;
65459;SDS011;52058;49.822;6.754;2023-07-31T06:39:39;4.35;;;1.85;;
65459;SDS011;52058;49.822;6.754;2023-07-31T06:42:05;6.50;;;1.80;;
65459;SDS011;52058;49.822;6.754;2023-07-31T06:44:32;4.70;;;1.98;;
65459;SDS011;52058;49.822;6.754;2023-07-31T06:46:59;5.18;;;2.22;;
65459;SDS011;52058;49.822;6.754;2023-07-31T06:49:27;6.72;;;2.10;;
65459;SDS011;52058;49.822;6.754;2023-07-31T06:51:53;4.90;;;2.28;;
65459;SDS011;52058;49.822;6.754;2023-07-31T06:54:20;6.95;;;1.67;;
65459;SDS011;52058;49.822;6.754;2023-07-31T06:56:46;7.05;;;2.45;;
65459;SDS011;52058;49.822;6.754;2023-07-31T06:59:13;5.88;;;2.05;;
65459;SDS011;52058;49.822;6.754;2023-07-31T07:01:39;3.08;;;1.52;;
65459;SDS011;52058;49.822;6.754;2023-07-31T07:04:06;5.22;;;1.80;;
65459;SDS011;52058;49.822;6.754;2023-07-31T07:06:34;5.50;;;1.98;;
65459;SDS011;52058;49.822;6.754;2023-07-31T07:09:01;5.00;;;1.73;;
65459;SDS011;52058;49.822;6.754;2023-07-31T07:11:28;5.05;;;1.80;;
65459;SDS011;52058;49.822;6.754;2023-07-31T07:13:55;6.75;;;2.30;;
65459;SDS011;52058;49.822;6.754;2023-07-31T07:16:21;3.17;;;2.05;;
65459;SDS011;52058;49.822;6.754;2023-07-31T07:18:48;7.60;;;1.90;;
65459;SDS011;52058;49.822;6.754;2023-07-31T07:21:15;5.50;;;1.73;;
65459;SDS011;52058;49.822;6.754;2023-07-31T07:23:44;7.22;;;1.65;;
65459;SDS011;52058;49.822;6.754;2023-07-31T07:26:10;6.00;;;1.80;;
65459;SDS011;52058;49.822;6.754;2023-07-31T07:28:37;5.63;;;2.00;;
65459;SDS011;52058;49.822;6.754;2023-07-31T07:31:04;2.95;;;1.70;;
65459;SDS011;52058;49.822;6.754;2023-07-31T07:33:30;4.10;;;1.83;;
65459;SDS011;52058;49.822;6.754;2023-07-31T07:35:59;4.97;;;1.70;;
65459;SDS011;52058;49.822;6.754;2023-07-31T07:38:26;5.30;;;1.90;;
65459;SDS011;52058;49.822;6.754;2023-07-31T07:40:54;4.63;;;2.03;;
65459;SDS011;52058;49.822;6.754;2023-07-31T07:43:20;4.20;;;1.85;;
65459;SDS011;52058;49.822;6.754;2023-07-31T07:45:47;5.13;;;2.20;;
65459;SDS011;52058;49.822;6.754;2023-07-31T07:48:14;3.40;;;1.50;;
65459;SDS011;52058;49.822;6.754;2023-07-31T07:50:42;4.30;;;1.80;;
65459;SDS011;52058;49.822;6.754;2023-07-31T07:53:08;6.07;;;2.00;;
65459;SDS011;52058;49.822;6.754;2023-07-31T07:55:35;5.38;;;2.30;;
65459;SDS011;52058;49.822;6.754;2023-07-31T07:58:03;7.13;;;2.10;;
65459;SDS011;52058;49.822;6.754;2023-07-31T08:00:29;4.10;;;1.95;;
65459;SDS011;52058;49.822;6.754;2023-07-31T08:02:56;5.65;;;2.13;;
65459;SDS011;52058;49.822;6.754;2023-07-31T08:05:23;5.60;;;2.80;;
65459;SDS011;52058;49.822;6.754;2023-07-31T08:07:50;4.63;;;2.08;;
65459;SDS011;52058;49.822;6.754;2023-07-31T08:10:16;6.45;;;2.03;;
65459;SDS011;52058;49.822;6.754;2023-07-31T08:12:43;5.63;;;2.08;;
65459;SDS011;52058;49.822;6.754;2023-07-31T08:15:11;7.60;;;2.30;;
65459;SDS011;52058;49.822;6.754;2023-07-31T08:17:37;5.40;;;2.10;;
65459;SDS011;52058;49.822;6.754;2023-07-31T08:20:05;4.20;;;2.17;;
65459;SDS011;52058;49.822;6.754;2023-07-31T08:22:32;3.53;;;2.00;;
65459;SDS011;52058;49.822;6.754;2023-07-31T08:24:59;3.65;;;1.90;;
65459;SDS011;52058;49.822;6.754;2023-07-31T08:27:26;5.95;;;2.28;;
65459;SDS011;52058;49.822;6.754;2023-07-31T08:29:52;4.68;;;2.15;;
65459;SDS011;52058;49.822;6.754;2023-07-31T08:32:20;6.80;;;2.17;;
65459;SDS011;52058;49.822;6.754;2023-07-31T08:34:48;6.90;;;1.90;;
65459;SDS011;52058;49.822;6.754;2023-07-31T08:37:15;3.95;;;2.05;;
65459;SDS011;52058;49.822;6.754;2023-07-31T08:39:41;3.65;;;2.10;;
65459;SDS011;52058;49.822;6.754;2023-07-31T08:42:08;5.47;;;1.95;;
65459;SDS011;52058;49.822;6.754;2023-07-31T08:44:35;3.22;;;2.20;;
65459;SDS011;52058;49.822;6.754;2023-07-31T08:47:03;4.90;;;2.22;;
65459;SDS011;52058;49.822;6.754;2023-07-31T08:49:32;4.03;;;1.75;;
65459;SDS011;52058;49.822;6.754;2023-07-31T08:52:00;5.03;;;2.10;;
65459;SDS011;52058;49.822;6.754;2023-07-31T08:54:28;4.82;;;2.10;;
65459;SDS011;52058;49.822;6.754;2023-07-31T08:56:56;4.65;;;1.90;;
65459;SDS011;52058;49.822;6.754;2023-07-31T08:59:24;6.97;;;1.95;;
65459;SDS011;52058;49.822;6.754;2023-07-31T09:01:53;3.60;;;1.70;;
65459;SDS011;52058;49.822;6.754;2023-07-31T09:04:22;3.63;;;1.77;;
65459;SDS011;52058;49.822;6.754;2023-07-31T09:06:50;4.75;;;2.42;;
65459;SDS011;52058;49.822;6.754;2023-07-31T09:09:23;4.47;;;2.13;;
65459;SDS011;52058;49.822;6.754;2023-07-31T09:11:49;4.50;;;1.90;;
65459;SDS011;52058;49.822;6.754;2023-07-31T09:14:17;5.28;;;2.55;;
65459;SDS011;52058;49.822;6.754;2023-07-31T09:16:53;5.03;;;2.13;;
65459;SDS011;52058;49.822;6.754;2023-07-31T09:19:27;4.88;;;2.00;;
65459;SDS011;52058;49.822;6.754;2023-07-31T09:21:57;3.42;;;2.28;;
65459;SDS011;52058;49.822;6.754;2023-07-31T09:24:27;4.10;;;2.00;;
65459;SDS011;52058;49.822;6.754;2023-07-31T09:26:55;5.03;;;1.90;;
65459;SDS011;52058;49.822;6.754;2023-07-31T09:29:22;5.75;;;2.40;;
65459;SDS011;52058;49.822;6.754;2023-07-31T09:31:50;3.80;;;2.25;;
65459;SDS011;52058;49.822;6.754;2023-07-31T09:34:17;4.50;;;1.92;;
65459;SDS011;52058;49.822;6.754;2023-07-31T09:36:44;5.30;;;2.20;;
65459;SDS011;52058;49.822;6.754;2023-07-31T09:39:13;3.97;;;2.10;;
65459;SDS011;52058;49.822;6.754;2023-07-31T09:41:43;5.50;;;1.80;;
65459;SDS011;52058;49.822;6.754;2023-07-31T09:44:11;3.78;;;1.90;;
65459;SDS011;52058;49.822;6.754;2023-07-31T09:46:38;6.38;;;2.08;;
65459;SDS011;52058;49.822;6.754;2023-07-31T09:49:08;3.65;;;2.08;;
65459;SDS011;52058;49.822;6.754;2023-07-31T09:51:36;3.90;;;1.70;;
65459;SDS011;52058;49.822;6.754;2023-07-31T09:54:08;4.32;;;2.00;;
65459;SDS011;52058;49.822;6.754;2023-07-31T09:56:38;4.45;;;1.83;;
65459;SDS011;52058;49.822;6.754;2023-07-31T09:59:08;2.80;;;1.70;;
65459;SDS011;52058;49.822;6.754;2023-07-31T10:01:37;3.47;;;1.50;;
65459;SDS011;52058;49.822;6.754;2023-07-31T10:04:04;4.25;;;1.63;;
65459;SDS011;52058;49.822;6.754;2023-07-31T10:06:32;7.53;;;1.70;;
65459;SDS011;52058;49.822;6.754;2023-07-31T10:09:01;2.35;;;1.42;;
65459;SDS011;52058;49.822;6.754;2023-07-31T10:11:28;2.40;;;1.50;;
65459;SDS011;52058;49.822;6.754;2023-07-31T10:14:01;2.25;;;1.50;;
65459;SDS011;52058;49.822;6.754;2023-07-31T10:16:28;3.53;;;1.70;;
65459;SDS011;52058;49.822;6.754;2023-07-31T10:18:55;5.40;;;1.55;;
65459;SDS011;52058;49.822;6.754;2023-07-31T10:21:22;2.85;;;1.65;;
65459;SDS011;52058;49.822;6.754;2023-07-31T10:23:49;2.47;;;1.60;;
65459;SDS011;52058;49.822;6.754;2023-07-31T10:26:17;3.97;;;1.80;;
65459;SDS011;52058;49.822;6.754;2023-07-31T10:28:46;5.57;;;2.42;;
65459;SDS011;52058;49.822;6.754;2023-07-31T10:31:15;2.35;;;1.63;;
65459;SDS011;52058;49.822;6.754;2023-07-31T10:33:41;1.67;;;1.38;;
65459;SDS011;52058;49.822;6.754;2023-07-31T10:36:12;3.00;;;1.52;;
65459;SDS011;52058;49.822;6.754;2023-07-31T10:38:38;2.88;;;1.42;;
65459;SDS011;52058;49.822;6.754;2023-07-31T10:41:07;2.78;;;1.30;;
65459;SDS011;52058;49.822;6.754;2023-07-31T10:43:34;2.85;;;1.48;;
65459;SDS011;52058;49.822;6.754;2023-07-31T10:46:06;2.78;;;1.33;;
65459;SDS011;52058;49.822;6.754;2023-07-31T10:48:35;2.13;;;1.30;;
65459;SDS011;52058;49.822;6.754;2023-07-31T10:51:06;3.25;;;1.30;;
65459;SDS011;52058;49.822;6.754;2023-07-31T10:53:35;1.45;;;1.20;;
65459;SDS011;52058;49.822;6.754;2023-07-31T10:56:03;2.20;;;1.30;;
65459;SDS011;52058;49.822;6.754;2023-07-31T10:58:31;1.88;;;1.20;;
65459;SDS011;52058;49.822;6.754;2023-07-31T11:00:58;1.67;;;1.27;;
65459;SDS011;52058;49.822;6.754;2023-07-31T11:03:41;4.25;;;1.40;;
65459;SDS011;52058;49.822;6.754;2023-07-31T11:06:09;1.55;;;1.20;;
65459;SDS011;52058;49.822;6.754;2023-07-31T11:08:40;2.13;;;1.30;;
65459;SDS011;52058;49.822;6.754;2023-07-31T11:11:08;1.70;;;1.30;;
65459;SDS011;52058;49.822;6.754;2023-07-31T11:13:39;1.98;;;1.13;;
65459;SDS011;52058;49.822;6.754;2023-07-31T11:16:08;4.15;;;1.48;;
65459;SDS011;52058;49.822;6.754;2023-07-31T11:18:35;1.73;;;1.38;;
65459;SDS011;52058;49.822;6.754;2023-07-31T11:21:03;1.63;;;1.15;;
65459;SDS011;52058;49.822;6.754;2023-07-31T11:23:30;1.63;;;1.30;;
65459;SDS011;52058;49.822;6.754;2023-07-31T11:25:58;3.80;;;1.50;;
65459;SDS011;52058;49.822;6.754;2023-07-31T11:28:26;2.10;;;1.50;;
65459;SDS011;52058;49.822;6.754;2023-07-31T11:30:58;3.08;;;1.52;;
65459;SDS011;52058;49.822;6.754;2023-07-31T11:33:24;1.98;;;1.58;;
65459;SDS011;52058;49.822;6.754;2023-07-31T11:35:51;4.78;;;2.05;;
65459;SDS011;52058;49.822;6.754;2023-07-31T11:38:22;3.50;;;1.63;;
65459;SDS011;52058;49.822;6.754;2023-07-31T11:40:50;2.55;;;1.67;;
65459;SDS011;52058;49.822;6.754;2023-07-31T11:43:17;3.55;;;1.50;;
65459;SDS011;52058;49.822;6.754;2023-07-31T11:45:45;3.10;;;1.42;;
65459;SDS011;52058;49.822;6.754;2023-07-31T11:48:18;2.47;;;1.42;;
65459;SDS011;52058;49.822;6.754;2023-07-31T11:50:45;3.15;;;1.42;;
65459;SDS011;52058;49.822;6.754;2023-07-31T11:53:12;3.97;;;1.60;;
65459;SDS011;52058;49.822;6.754;2023-07-31T11:55:41;3.03;;;1.63;;
65459;SDS011;52058;49.822;6.754;2023-07-31T11:58:08;3.50;;;1.63;;
65459;SDS011;52058;49.822;6.754;2023-07-31T12:00:35;3.03;;;1.70;;
65459;SDS011;52058;49.822;6.754;2023-07-31T12:03:02;5.72;;;2.03;;
65459;SDS011;52058;49.822;6.754;2023-07-31T12:05:29;2.92;;;1.40;;
65459;SDS011;52058;49.822;6.754;2023-07-31T12:07:56;3.53;;;1.48;;
65459;SDS011;52058;49.822;6.754;2023-07-31T12:10:24;2.60;;;1.40;;
65459;SDS011;52058;49.822;6.754;2023-07-31T12:13:03;3.53;;;1.73;;
65459;SDS011;52058;49.822;6.754;2023-07-31T12:15:35;4.05;;;1.55;;
65459;SDS011;52058;49.822;6.754;2023-07-31T12:18:04;4.72;;;1.75;;
65459;SDS011;52058;49.822;6.754;2023-07-31T12:20:31;2.95;;;1.70;;
65459;SDS011;52058;49.822;6.754;2023-07-31T12:22:58;2.50;;;1.65;;
65459;SDS011;52058;49.822;6.754;2023-07-31T12:25:29;4.90;;;1.73;;
65459;SDS011;52058;49.822;6.754;2023-07-31T12:27:56;2.83;;;1.80;;
65459;SDS011;52058;49.822;6.754;2023-07-31T12:30:27;3.33;;;1.55;;
65459;SDS011;52058;49.822;6.754;2023-07-31T12:32:54;5.50;;;1.70;;
65459;SDS011;52058;49.822;6.754;2023-07-31T12:35:21;3.42;;;1.77;;
65459;SDS011;52058;49.822;6.754;2023-07-31T12:37:47;4.85;;;2.13;;
65459;SDS011;52058;49.822;6.754;2023-07-31T12:40:14;3.10;;;1.60;;
65459;SDS011;52058;49.822;6.754;2023-07-31T12:42:41;3.22;;;1.90;;
65459;SDS011;52058;49.822;6.754;2023-07-31T12:45:08;4.07;;;1.73;;
65459;SDS011;52058;49.822;6.754;2023-07-31T12:47:36;3.38;;;1.75;;
65459;SDS011;52058;49.822;6.754;2023-07-31T12:50:03;3.42;;;1.75;;
65459;SDS011;52058;49.822;6.754;2023-07-31T12:52:30;2.85;;;1.85;;
65459;SDS011;52058;49.822;6.754;2023-07-31T12:54:56;3.60;;;1.80;;
65459;SDS011;52058;49.822;6.754;2023-07-31T12:57:23;4.93;;;2.33;;
65459;SDS011;52058;49.822;6.754;2023-07-31T12:59:49;4.25;;;2.10;;
65459;SDS011;52058;49.822;6.754;2023-07-31T13:02:16;3.78;;;1.75;;
65459;SDS011;52058;49.822;6.754;2023-07-31T13:04:44;2.03;;;1.38;;
65459;SDS011;52058;49.822;6.754;2023-07-31T13:07:10;2.83;;;1.58;;
65459;SDS011;52058;49.822;6.754;2023-07-31T13:09:37;3.40;;;1.70;;
65459;SDS011;52058;49.822;6.754;2023-07-31T13:12:04;2.58;;;1.48;;
65459;SDS011;52058;49.822;6.754;2023-07-31T13:14:31;2.42;;;1.63;;
65459;SDS011;52058;49.822;6.754;2023-07-31T13:16:57;2.03;;;1.63;;
65459;SDS011;52058;49.822;6.754;2023-07-31T13:19:24;2.47;;;1.40;;
65459;SDS011;52058;49.822;6.754;2023-07-31T13:21:52;3.47;;;1.88;;
65459;SDS011;52058;49.822;6.754;2023-07-31T13:24:19;3.47;;;1.70;;
65459;SDS011;52058;49.822;6.754;2023-07-31T13:26:45;2.72;;;1.70;;
65459;SDS011;52058;49.822;6.754;2023-07-31T13:29:12;3.95;;;1.65;;
65459;SDS011;52058;49.822;6.754;2023-07-31T13:31:39;1.85;;;1.63;;
65459;SDS011;52058;49.822;6.754;2023-07-31T13:34:05;5.00;;;1.65;;
65459;SDS011;52058;49.822;6.754;2023-07-31T13:36:32;4.03;;;1.60;;
65459;SDS011;52058;49.822;6.754;2023-07-31T13:39:00;3.40;;;1.80;;
65459;SDS011;52058;49.822;6.754;2023-07-31T13:41:27;2.13;;;1.73;;
65459;SDS011;52058;49.822;6.754;2023-07-31T13:43:53;2.58;;;1.67;;
65459;SDS011;52058;49.822;6.754;2023-07-31T13:46:20;3.30;;;1.60;;
65459;SDS011;52058;49.822;6.754;2023-07-31T13:48:46;2.42;;;1.50;;
65459;SDS011;52058;49.822;6.754;2023-07-31T13:51:13;2.17;;;1.38;;
65459;SDS011;52058;49.822;6.754;2023-07-31T13:53:39;3.15;;;1.77;;
65459;SDS011;52058;49.822;6.754;2023-07-31T13:56:07;2.95;;;1.73;;
65459;SDS011;52058;49.822;6.754;2023-07-31T13:58:34;4.38;;;2.03;;
65459;SDS011;52058;49.822;6.754;2023-07-31T14:01:01;4.97;;;1.90;;
65459;SDS011;52058;49.822;6.754;2023-07-31T14:03:28;4.13;;;1.70;;
65459;SDS011;52058;49.822;6.754;2023-07-31T14:05:54;3.25;;;1.85;;
65459;SDS011;52058;49.822;6.754;2023-07-31T14:08:21;4.85;;;2.08;;
65459;SDS011;52058;49.822;6.754;2023-07-31T14:10:48;5.63;;;1.63;;
65459;SDS011;52058;49.822;6.754;2023-07-31T14:13:16;2.83;;;1.55;;
65459;SDS011;52058;49.822;6.754;2023-07-31T14:15:42;7.57;;;1.80;;
65459;SDS011;52058;49.822;6.754;2023-07-31T14:18:09;4.30;;;1.60;;
65459;SDS011;52058;49.822;6.754;2023-07-31T14:20:35;3.72;;;1.77;;
65459;SDS011;52058;49.822;6.754;2023-07-31T14:23:02;3.67;;;1.90;;
65459;SDS011;52058;49.822;6.754;2023-07-31T14:25:29;4.13;;;1.80;;
65459;SDS011;52058;49.822;6.754;2023-07-31T14:27:55;3.05;;;1.50;;
65459;SDS011;52058;49.822;6.754;2023-07-31T14:30:23;5.00;;;1.80;;
65459;SDS011;52058;49.822;6.754;2023-07-31T14:32:50;4.13;;;1.80;;
65459;SDS011;52058;49.822;6.754;2023-07-31T14:35:16;3.10;;;1.52;;
65459;SDS011;52058;49.822;6.754;2023-07-31T14:37:44;2.65;;;1.88;;
65459;SDS011;52058;49.822;6.754;2023-07-31T14:40:11;4.10;;;1.95;;
65459;SDS011;52058;49.822;6.754;2023-07-31T14:42:39;3.97;;;1.60;;
65459;SDS011;52058;49.822;6.754;2023-07-31T14:45:06;2.67;;;1.80;;
65459;SDS011;52058;49.822;6.754;2023-07-31T14:47:36;2.53;;;1.63;;
65459;SDS011;52058;49.822;6.754;2023-07-31T14:50:03;3.80;;;2.50;;